sensor_id;sensor_type;location;lat;lon;timestamp;P1;durP1;ratioP1;P2;durP2;ratioP2
12429;SDS011;6279;42.192;24.326;2023-10-19T00:00:33;15.07;;;13.47;;
12429;SDS011;6279;42.192;24.326;2023-10-19T00:03:01;14.97;;;13.33;;
12429;SDS011;6279;42.192;24.326;2023-10-19T00:05:31;17.53;;;14.07;;
12429;SDS011;6279;42.192;24.326;2023-10-19T00:07:58;15.07;;;13.57;;
12429;SDS011;6279;42.192;24.326;2023-10-19T00:10:25;14.57;;;13.03;;
12429;SDS011;6279;42.192;24.326;2023-10-19T00:12:54;16.00;;;13.90;;
12429;SDS011;6279;42.192;24.326;2023-10-19T00:15:28;18.33;;;13.40;;
12429;SDS011;6279;42.192;24.326;2023-10-19T00:17:57;14.87;;;13.33;;
12429;SDS011;6279;42.192;24.326;2023-10-19T00:20:24;16.20;;;14.17;;
12429;SDS011;6279;42.192;24.326;2023-10-19T00:23:22;15.80;;;13.87;;
12429;SDS011;6279;42.192;24.326;2023-10-19T00:25:58;17.17;;;13.83;;
12429;SDS011;6279;42.192;24.326;2023-10-19T00:28:26;15.63;;;13.93;;
12429;SDS011;6279;42.192;24.326;2023-10-19T00:30:52;15.87;;;13.77;;
12429;SDS011;6279;42.192;24.326;2023-10-19T00:33:18;16.33;;;14.63;;
12429;SDS011;6279;42.192;24.326;2023-10-19T00:35:51;17.90;;;14.57;;
12429;SDS011;6279;42.192;24.326;2023-10-19T00:38:25;15.97;;;13.33;;
12429;SDS011;6279;42.192;24.326;2023-10-19T00:40:52;15.90;;;13.60;;
12429;SDS011;6279;42.192;24.326;2023-10-19T00:43:41;16.30;;;13.50;;
12429;SDS011;6279;42.192;24.326;2023-10-19T00:46:13;17.13;;;14.10;;
12429;SDS011;6279;42.192;24.326;2023-10-19T00:48:50;14.43;;;12.93;;
12429;SDS011;6279;42.192;24.326;2023-10-19T00:51:20;18.33;;;14.03;;
12429;SDS011;6279;42.192;24.326;2023-10-19T00:53:56;15.80;;;13.37;;
12429;SDS011;6279;42.192;24.326;2023-10-19T00:56:24;16.43;;;14.03;;
12429;SDS011;6279;42.192;24.326;2023-10-19T00:58:58;15.47;;;13.83;;
12429;SDS011;6279;42.192;24.326;2023-10-19T01:01:42;16.63;;;13.27;;
12429;SDS011;6279;42.192;24.326;2023-10-19T01:04:16;16.23;;;14.50;;
12429;SDS011;6279;42.192;24.326;2023-10-19T01:06:57;18.03;;;14.80;;
12429;SDS011;6279;42.192;24.326;2023-10-19T01:09:29;20.47;;;14.87;;
12429;SDS011;6279;42.192;24.326;2023-10-19T01:11:59;15.63;;;14.03;;
12429;SDS011;6279;42.192;24.326;2023-10-19T01:14:29;17.87;;;14.23;;
12429;SDS011;6279;42.192;24.326;2023-10-19T01:16:55;15.70;;;14.00;;
12429;SDS011;6279;42.192;24.326;2023-10-19T01:19:23;15.33;;;13.73;;
12429;SDS011;6279;42.192;24.326;2023-10-19T01:21:49;16.30;;;13.83;;
12429;SDS011;6279;42.192;24.326;2023-10-19T01:24:18;15.50;;;13.17;;
12429;SDS011;6279;42.192;24.326;2023-10-19T01:27:04;15.17;;;12.13;;
12429;SDS011;6279;42.192;24.326;2023-10-19T01:29:33;13.07;;;10.87;;
12429;SDS011;6279;42.192;24.326;2023-10-19T01:31:59;12.87;;;11.13;;
12429;SDS011;6279;42.192;24.326;2023-10-19T01:34:33;11.33;;;9.70;;
12429;SDS011;6279;42.192;24.326;2023-10-19T01:36:59;11.23;;;10.03;;
12429;SDS011;6279;42.192;24.326;2023-10-19T01:39:29;11.20;;;8.77;;
12429;SDS011;6279;42.192;24.326;2023-10-19T01:42:00;10.93;;;9.50;;
12429;SDS011;6279;42.192;24.326;2023-10-19T01:44:26;9.73;;;8.43;;
12429;SDS011;6279;42.192;24.326;2023-10-19T01:46:52;10.93;;;7.97;;
12429;SDS011;6279;42.192;24.326;2023-10-19T01:49:18;8.93;;;8.03;;
12429;SDS011;6279;42.192;24.326;2023-10-19T01:51:53;9.37;;;8.30;;
12429;SDS011;6279;42.192;24.326;2023-10-19T01:54:19;12.80;;;7.50;;
12429;SDS011;6279;42.192;24.326;2023-10-19T01:56:49;9.23;;;8.23;;
12429;SDS011;6279;42.192;24.326;2023-10-19T01:59:23;9.73;;;8.00;;
12429;SDS011;6279;42.192;24.326;2023-10-19T02:01:52;8.57;;;7.40;;
12429;SDS011;6279;42.192;24.326;2023-10-19T02:04:19;8.77;;;7.87;;
12429;SDS011;6279;42.192;24.326;2023-10-19T02:06:47;7.97;;;7.17;;
12429;SDS011;6279;42.192;24.326;2023-10-19T02:09:13;9.43;;;7.13;;
12429;SDS011;6279;42.192;24.326;2023-10-19T02:11:54;8.07;;;6.87;;
12429;SDS011;6279;42.192;24.326;2023-10-19T02:14:22;8.53;;;7.70;;
12429;SDS011;6279;42.192;24.326;2023-10-19T02:16:51;7.90;;;6.63;;
12429;SDS011;6279;42.192;24.326;2023-10-19T02:19:24;7.67;;;6.93;;
12429;SDS011;6279;42.192;24.326;2023-10-19T02:22:01;10.30;;;7.20;;
12429;SDS011;6279;42.192;24.326;2023-10-19T02:24:29;7.33;;;6.63;;
12429;SDS011;6279;42.192;24.326;2023-10-19T02:26:55;7.90;;;6.53;;
12429;SDS011;6279;42.192;24.326;2023-10-19T02:29:22;8.83;;;6.77;;
12429;SDS011;6279;42.192;24.326;2023-10-19T02:31:48;7.30;;;6.50;;
12429;SDS011;6279;42.192;24.326;2023-10-19T02:34:14;7.87;;;7.07;;
12429;SDS011;6279;42.192;24.326;2023-10-19T02:36:40;8.07;;;6.90;;
12429;SDS011;6279;42.192;24.326;2023-10-19T02:39:08;8.97;;;7.17;;
12429;SDS011;6279;42.192;24.326;2023-10-19T02:44:01;9.33;;;6.80;;
12429;SDS011;6279;42.192;24.326;2023-10-19T02:46:35;9.20;;;7.30;;
12429;SDS011;6279;42.192;24.326;2023-10-19T02:49:05;8.83;;;7.93;;
12429;SDS011;6279;42.192;24.326;2023-10-19T02:51:38;12.10;;;8.90;;
12429;SDS011;6279;42.192;24.326;2023-10-19T02:54:06;10.20;;;8.40;;
12429;SDS011;6279;42.192;24.326;2023-10-19T02:56:32;10.33;;;8.03;;
12429;SDS011;6279;42.192;24.326;2023-10-19T02:59:00;8.73;;;7.83;;
12429;SDS011;6279;42.192;24.326;2023-10-19T03:01:29;11.77;;;10.07;;
12429;SDS011;6279;42.192;24.326;2023-10-19T03:03:58;12.63;;;11.27;;
12429;SDS011;6279;42.192;24.326;2023-10-19T03:06:25;11.43;;;9.13;;
12429;SDS011;6279;42.192;24.326;2023-10-19T03:09:03;10.73;;;9.17;;
12429;SDS011;6279;42.192;24.326;2023-10-19T03:11:37;14.13;;;10.63;;
12429;SDS011;6279;42.192;24.326;2023-10-19T03:14:05;16.43;;;12.37;;
12429;SDS011;6279;42.192;24.326;2023-10-19T03:16:31;16.90;;;12.83;;
12429;SDS011;6279;42.192;24.326;2023-10-19T03:18:56;14.87;;;11.70;;
12429;SDS011;6279;42.192;24.326;2023-10-19T03:21:22;12.00;;;9.50;;
12429;SDS011;6279;42.192;24.326;2023-10-19T03:23:57;10.00;;;8.53;;
12429;SDS011;6279;42.192;24.326;2023-10-19T03:26:27;9.73;;;8.57;;
12429;SDS011;6279;42.192;24.326;2023-10-19T03:28:56;10.00;;;8.90;;
12429;SDS011;6279;42.192;24.326;2023-10-19T03:31:32;12.23;;;9.20;;
12429;SDS011;6279;42.192;24.326;2023-10-19T03:33:58;9.63;;;8.63;;
12429;SDS011;6279;42.192;24.326;2023-10-19T03:36:24;10.33;;;9.23;;
12429;SDS011;6279;42.192;24.326;2023-10-19T03:38:51;10.33;;;8.83;;
12429;SDS011;6279;42.192;24.326;2023-10-19T03:41:18;10.13;;;8.37;;
12429;SDS011;6279;42.192;24.326;2023-10-19T03:43:51;9.57;;;8.57;;
12429;SDS011;6279;42.192;24.326;2023-10-19T03:46:19;11.77;;;8.23;;
12429;SDS011;6279;42.192;24.326;2023-10-19T03:48:56;9.90;;;8.33;;
12429;SDS011;6279;42.192;24.326;2023-10-19T03:51:35;9.10;;;8.13;;
12429;SDS011;6279;42.192;24.326;2023-10-19T03:54:23;10.33;;;8.23;;
12429;SDS011;6279;42.192;24.326;2023-10-19T03:56:52;10.00;;;8.17;;
12429;SDS011;6279;42.192;24.326;2023-10-19T03:59:18;8.07;;;7.27;;
12429;SDS011;6279;42.192;24.326;2023-10-19T04:01:45;11.87;;;8.60;;
12429;SDS011;6279;42.192;24.326;2023-10-19T04:04:10;10.77;;;9.20;;
12429;SDS011;6279;42.192;24.326;2023-10-19T04:06:36;11.43;;;8.47;;
12429;SDS011;6279;42.192;24.326;2023-10-19T04:09:05;10.70;;;7.80;;
12429;SDS011;6279;42.192;24.326;2023-10-19T04:11:31;14.17;;;10.10;;
12429;SDS011;6279;42.192;24.326;2023-10-19T04:13:58;12.80;;;9.73;;
12429;SDS011;6279;42.192;24.326;2023-10-19T04:16:28;15.27;;;9.23;;
12429;SDS011;6279;42.192;24.326;2023-10-19T04:18:54;13.47;;;9.67;;
12429;SDS011;6279;42.192;24.326;2023-10-19T04:21:20;14.13;;;10.70;;
12429;SDS011;6279;42.192;24.326;2023-10-19T04:23:45;17.07;;;11.90;;
12429;SDS011;6279;42.192;24.326;2023-10-19T04:26:11;17.30;;;13.27;;
12429;SDS011;6279;42.192;24.326;2023-10-19T04:28:40;22.63;;;14.80;;
12429;SDS011;6279;42.192;24.326;2023-10-19T04:31:15;21.37;;;14.33;;
12429;SDS011;6279;42.192;24.326;2023-10-19T04:33:44;17.27;;;12.07;;
12429;SDS011;6279;42.192;24.326;2023-10-19T04:36:14;17.63;;;11.87;;
12429;SDS011;6279;42.192;24.326;2023-10-19T04:38:40;16.77;;;12.63;;
12429;SDS011;6279;42.192;24.326;2023-10-19T04:41:09;17.13;;;11.03;;
12429;SDS011;6279;42.192;24.326;2023-10-19T04:43:39;14.13;;;10.00;;
12429;SDS011;6279;42.192;24.326;2023-10-19T04:46:08;12.90;;;9.83;;
12429;SDS011;6279;42.192;24.326;2023-10-19T04:48:38;15.27;;;11.17;;
12429;SDS011;6279;42.192;24.326;2023-10-19T04:51:05;16.80;;;10.03;;
12429;SDS011;6279;42.192;24.326;2023-10-19T04:53:36;12.37;;;8.73;;
12429;SDS011;6279;42.192;24.326;2023-10-19T04:56:03;9.83;;;8.23;;
12429;SDS011;6279;42.192;24.326;2023-10-19T04:58:29;12.60;;;7.90;;
12429;SDS011;6279;42.192;24.326;2023-10-19T05:00:55;13.37;;;7.97;;
12429;SDS011;6279;42.192;24.326;2023-10-19T05:03:20;8.80;;;7.47;;
12429;SDS011;6279;42.192;24.326;2023-10-19T05:05:46;9.20;;;8.13;;
12429;SDS011;6279;42.192;24.326;2023-10-19T05:08:12;12.20;;;7.83;;
12429;SDS011;6279;42.192;24.326;2023-10-19T05:10:37;9.10;;;7.87;;
12429;SDS011;6279;42.192;24.326;2023-10-19T05:13:03;12.90;;;7.43;;
12429;SDS011;6279;42.192;24.326;2023-10-19T05:15:29;11.20;;;7.43;;
12429;SDS011;6279;42.192;24.326;2023-10-19T05:17:54;10.03;;;7.77;;
12429;SDS011;6279;42.192;24.326;2023-10-19T05:20:20;10.40;;;7.43;;
12429;SDS011;6279;42.192;24.326;2023-10-19T05:22:46;9.80;;;7.40;;
12429;SDS011;6279;42.192;24.326;2023-10-19T05:25:12;10.17;;;6.97;;
12429;SDS011;6279;42.192;24.326;2023-10-19T05:27:38;9.37;;;7.00;;
12429;SDS011;6279;42.192;24.326;2023-10-19T05:30:04;7.80;;;6.83;;
12429;SDS011;6279;42.192;24.326;2023-10-19T05:32:31;7.77;;;6.97;;
12429;SDS011;6279;42.192;24.326;2023-10-19T05:34:56;8.83;;;7.33;;
12429;SDS011;6279;42.192;24.326;2023-10-19T05:37:22;10.10;;;7.27;;
12429;SDS011;6279;42.192;24.326;2023-10-19T05:39:48;8.40;;;7.17;;
12429;SDS011;6279;42.192;24.326;2023-10-19T05:42:16;13.27;;;7.30;;
12429;SDS011;6279;42.192;24.326;2023-10-19T05:44:42;7.90;;;6.87;;
12429;SDS011;6279;42.192;24.326;2023-10-19T05:47:08;8.07;;;7.00;;
12429;SDS011;6279;42.192;24.326;2023-10-19T05:49:33;10.10;;;6.67;;
12429;SDS011;6279;42.192;24.326;2023-10-19T05:51:59;9.23;;;6.10;;
12429;SDS011;6279;42.192;24.326;2023-10-19T05:54:24;10.93;;;6.03;;
12429;SDS011;6279;42.192;24.326;2023-10-19T05:56:50;9.97;;;6.17;;
12429;SDS011;6279;42.192;24.326;2023-10-19T05:59:16;9.97;;;6.83;;
12429;SDS011;6279;42.192;24.326;2023-10-19T06:01:42;7.70;;;6.33;;
12429;SDS011;6279;42.192;24.326;2023-10-19T06:04:11;8.40;;;5.93;;
12429;SDS011;6279;42.192;24.326;2023-10-19T06:06:37;14.60;;;6.17;;
12429;SDS011;6279;42.192;24.326;2023-10-19T06:09:04;7.83;;;6.00;;
12429;SDS011;6279;42.192;24.326;2023-10-19T06:11:33;6.53;;;5.70;;
12429;SDS011;6279;42.192;24.326;2023-10-19T06:13:59;6.17;;;5.57;;
12429;SDS011;6279;42.192;24.326;2023-10-19T06:16:25;7.10;;;5.50;;
12429;SDS011;6279;42.192;24.326;2023-10-19T06:18:50;8.57;;;6.33;;
12429;SDS011;6279;42.192;24.326;2023-10-19T06:21:17;9.70;;;6.17;;
12429;SDS011;6279;42.192;24.326;2023-10-19T06:23:44;8.87;;;6.43;;
12429;SDS011;6279;42.192;24.326;2023-10-19T06:26:10;12.00;;;7.20;;
12429;SDS011;6279;42.192;24.326;2023-10-19T06:28:39;9.17;;;6.80;;
12429;SDS011;6279;42.192;24.326;2023-10-19T06:31:05;7.63;;;6.90;;
12429;SDS011;6279;42.192;24.326;2023-10-19T06:33:31;9.97;;;6.20;;
12429;SDS011;6279;42.192;24.326;2023-10-19T06:35:58;11.10;;;6.70;;
12429;SDS011;6279;42.192;24.326;2023-10-19T06:38:24;8.17;;;5.90;;
12429;SDS011;6279;42.192;24.326;2023-10-19T06:40:51;6.77;;;5.83;;
12429;SDS011;6279;42.192;24.326;2023-10-19T06:43:16;7.17;;;6.43;;
12429;SDS011;6279;42.192;24.326;2023-10-19T06:45:43;6.73;;;6.13;;
12429;SDS011;6279;42.192;24.326;2023-10-19T06:48:09;10.27;;;6.80;;
12429;SDS011;6279;42.192;24.326;2023-10-19T06:50:36;7.43;;;6.67;;
12429;SDS011;6279;42.192;24.326;2023-10-19T06:53:02;7.27;;;6.27;;
12429;SDS011;6279;42.192;24.326;2023-10-19T06:55:30;9.47;;;7.30;;
12429;SDS011;6279;42.192;24.326;2023-10-19T06:57:56;17.00;;;6.97;;
12429;SDS011;6279;42.192;24.326;2023-10-19T07:00:22;8.57;;;6.70;;
12429;SDS011;6279;42.192;24.326;2023-10-19T07:02:51;12.97;;;7.17;;
12429;SDS011;6279;42.192;24.326;2023-10-19T07:05:18;8.37;;;6.67;;
12429;SDS011;6279;42.192;24.326;2023-10-19T07:07:48;8.73;;;6.10;;
12429;SDS011;6279;42.192;24.326;2023-10-19T07:10:15;8.93;;;6.27;;
12429;SDS011;6279;42.192;24.326;2023-10-19T07:12:43;12.93;;;6.20;;
12429;SDS011;6279;42.192;24.326;2023-10-19T07:15:10;7.00;;;5.30;;
12429;SDS011;6279;42.192;24.326;2023-10-19T07:17:41;7.00;;;4.50;;
12429;SDS011;6279;42.192;24.326;2023-10-19T07:20:08;7.63;;;5.47;;
12429;SDS011;6279;42.192;24.326;2023-10-19T07:22:52;6.37;;;4.93;;
12429;SDS011;6279;42.192;24.326;2023-10-19T07:25:18;8.37;;;6.17;;
12429;SDS011;6279;42.192;24.326;2023-10-19T07:27:46;9.87;;;7.27;;
12429;SDS011;6279;42.192;24.326;2023-10-19T07:30:15;6.53;;;5.93;;
12429;SDS011;6279;42.192;24.326;2023-10-19T07:32:51;9.70;;;5.73;;
12429;SDS011;6279;42.192;24.326;2023-10-19T07:35:23;9.13;;;5.30;;
12429;SDS011;6279;42.192;24.326;2023-10-19T07:37:51;6.68;;;5.32;;
12429;SDS011;6279;42.192;24.326;2023-10-19T07:40:16;7.10;;;5.75;;
12429;SDS011;6279;42.192;24.326;2023-10-19T07:42:43;8.32;;;5.40;;
12429;SDS011;6279;42.192;24.326;2023-10-19T07:45:08;6.97;;;4.82;;
12429;SDS011;6279;42.192;24.326;2023-10-19T07:47:40;5.80;;;5.20;;
12429;SDS011;6279;42.192;24.326;2023-10-19T07:50:09;5.72;;;5.13;;
12429;SDS011;6279;42.192;24.326;2023-10-19T07:52:43;9.10;;;5.57;;
12429;SDS011;6279;42.192;24.326;2023-10-19T07:55:09;7.68;;;5.80;;
12429;SDS011;6279;42.192;24.326;2023-10-19T07:57:35;6.45;;;5.60;;
12429;SDS011;6279;42.192;24.326;2023-10-19T08:00:01;6.90;;;5.70;;
12429;SDS011;6279;42.192;24.326;2023-10-19T08:02:28;6.55;;;5.30;;
12429;SDS011;6279;42.192;24.326;2023-10-19T08:04:55;6.35;;;5.00;;
12429;SDS011;6279;42.192;24.326;2023-10-19T08:07:21;5.95;;;5.28;;
12429;SDS011;6279;42.192;24.326;2023-10-19T08:09:47;9.48;;;5.18;;
12429;SDS011;6279;42.192;24.326;2023-10-19T08:12:12;4.72;;;4.28;;
12429;SDS011;6279;42.192;24.326;2023-10-19T08:14:38;7.93;;;5.50;;
12429;SDS011;6279;42.192;24.326;2023-10-19T08:17:04;7.90;;;5.20;;
12429;SDS011;6279;42.192;24.326;2023-10-19T08:19:30;5.30;;;4.90;;
12429;SDS011;6279;42.192;24.326;2023-10-19T08:21:56;6.80;;;5.10;;
12429;SDS011;6279;42.192;24.326;2023-10-19T08:24:22;5.82;;;5.28;;
12429;SDS011;6279;42.192;24.326;2023-10-19T08:26:48;9.05;;;5.50;;
12429;SDS011;6279;42.192;24.326;2023-10-19T08:29:14;6.13;;;5.63;;
12429;SDS011;6279;42.192;24.326;2023-10-19T08:31:40;6.60;;;5.90;;
12429;SDS011;6279;42.192;24.326;2023-10-19T08:34:11;6.65;;;5.80;;
12429;SDS011;6279;42.192;24.326;2023-10-19T08:36:37;6.53;;;5.70;;
12429;SDS011;6279;42.192;24.326;2023-10-19T08:39:04;7.68;;;5.80;;
12429;SDS011;6279;42.192;24.326;2023-10-19T08:41:31;6.68;;;6.03;;
12429;SDS011;6279;42.192;24.326;2023-10-19T08:43:59;7.32;;;6.63;;
12429;SDS011;6279;42.192;24.326;2023-10-19T08:46:26;6.72;;;6.10;;
12429;SDS011;6279;42.192;24.326;2023-10-19T08:48:55;8.13;;;6.53;;
12429;SDS011;6279;42.192;24.326;2023-10-19T08:51:22;8.05;;;6.82;;
12429;SDS011;6279;42.192;24.326;2023-10-19T08:53:50;7.63;;;6.93;;
12429;SDS011;6279;42.192;24.326;2023-10-19T08:56:18;9.27;;;8.27;;
12429;SDS011;6279;42.192;24.326;2023-10-19T08:58:45;8.60;;;7.80;;
12429;SDS011;6279;42.192;24.326;2023-10-19T09:01:11;9.70;;;8.13;;
12429;SDS011;6279;42.192;24.326;2023-10-19T09:03:37;9.87;;;8.37;;
12429;SDS011;6279;42.192;24.326;2023-10-19T09:06:03;9.80;;;8.80;;
12429;SDS011;6279;42.192;24.326;2023-10-19T09:08:30;10.33;;;8.80;;
12429;SDS011;6279;42.192;24.326;2023-10-19T09:11:05;10.63;;;9.13;;
12429;SDS011;6279;42.192;24.326;2023-10-19T09:13:45;10.20;;;8.90;;
12429;SDS011;6279;42.192;24.326;2023-10-19T09:16:24;10.30;;;9.00;;
12429;SDS011;6279;42.192;24.326;2023-10-19T09:18:49;12.00;;;10.80;;
12429;SDS011;6279;42.192;24.326;2023-10-19T09:21:17;11.00;;;9.90;;
12429;SDS011;6279;42.192;24.326;2023-10-19T09:23:49;10.07;;;8.93;;
12429;SDS011;6279;42.192;24.326;2023-10-19T09:26:16;12.87;;;9.57;;
12429;SDS011;6279;42.192;24.326;2023-10-19T09:28:43;11.10;;;9.97;;
12429;SDS011;6279;42.192;24.326;2023-10-19T09:31:15;11.53;;;10.33;;
12429;SDS011;6279;42.192;24.326;2023-10-19T09:33:42;9.87;;;8.87;;
12429;SDS011;6279;42.192;24.326;2023-10-19T09:36:09;9.93;;;8.50;;
12429;SDS011;6279;42.192;24.326;2023-10-19T09:38:48;11.63;;;9.10;;
12429;SDS011;6279;42.192;24.326;2023-10-19T09:41:19;10.57;;;8.67;;
12429;SDS011;6279;42.192;24.326;2023-10-19T09:43:47;12.47;;;9.27;;
12429;SDS011;6279;42.192;24.326;2023-10-19T09:46:22;10.23;;;8.87;;
12429;SDS011;6279;42.192;24.326;2023-10-19T09:48:51;11.37;;;10.03;;
12429;SDS011;6279;42.192;24.326;2023-10-19T09:51:17;12.03;;;10.37;;
12429;SDS011;6279;42.192;24.326;2023-10-19T09:53:45;10.67;;;9.50;;
12429;SDS011;6279;42.192;24.326;2023-10-19T09:56:19;10.37;;;9.37;;
12429;SDS011;6279;42.192;24.326;2023-10-19T09:58:48;10.83;;;9.10;;
12429;SDS011;6279;42.192;24.326;2023-10-19T10:01:16;10.75;;;9.65;;
12429;SDS011;6279;42.192;24.326;2023-10-19T10:03:50;11.23;;;9.00;;
12429;SDS011;6279;42.192;24.326;2023-10-19T10:06:18;9.30;;;8.40;;
12429;SDS011;6279;42.192;24.326;2023-10-19T10:08:52;9.80;;;8.70;;
12429;SDS011;6279;42.192;24.326;2023-10-19T10:11:21;9.93;;;8.93;;
12429;SDS011;6279;42.192;24.326;2023-10-19T10:13:49;13.48;;;8.85;;
12429;SDS011;6279;42.192;24.326;2023-10-19T10:16:19;7.50;;;6.45;;
12429;SDS011;6279;42.192;24.326;2023-10-19T10:18:47;7.22;;;6.53;;
12429;SDS011;6279;42.192;24.326;2023-10-19T10:21:18;7.85;;;7.15;;
12429;SDS011;6279;42.192;24.326;2023-10-19T10:26:23;8.18;;;7.47;;
12429;SDS011;6279;42.192;24.326;2023-10-19T10:31:48;11.20;;;8.70;;
12429;SDS011;6279;42.192;24.326;2023-10-19T10:34:41;8.65;;;7.80;;
12429;SDS011;6279;42.192;24.326;2023-10-19T10:37:09;9.05;;;7.95;;
12429;SDS011;6279;42.192;24.326;2023-10-19T10:39:36;7.93;;;7.13;;
12429;SDS011;6279;42.192;24.326;2023-10-19T10:42:03;10.37;;;7.83;;
12429;SDS011;6279;42.192;24.326;2023-10-19T10:47:04;8.60;;;7.43;;
12429;SDS011;6279;42.192;24.326;2023-10-19T10:49:31;22.73;;;17.33;;
12429;SDS011;6279;42.192;24.326;2023-10-19T10:51:57;12.27;;;8.67;;
12429;SDS011;6279;42.192;24.326;2023-10-19T10:54:22;9.43;;;8.07;;
12429;SDS011;6279;42.192;24.326;2023-10-19T10:56:49;11.70;;;8.00;;
12429;SDS011;6279;42.192;24.326;2023-10-19T10:59:15;8.67;;;7.77;;
12429;SDS011;6279;42.192;24.326;2023-10-19T11:01:40;10.47;;;8.60;;
12429;SDS011;6279;42.192;24.326;2023-10-19T11:04:10;9.67;;;8.40;;
12429;SDS011;6279;42.192;24.326;2023-10-19T11:09:45;10.00;;;9.00;;
12429;SDS011;6279;42.192;24.326;2023-10-19T11:12:12;9.57;;;8.10;;
12429;SDS011;6279;42.192;24.326;2023-10-19T11:14:51;10.50;;;9.40;;
12429;SDS011;6279;42.192;24.326;2023-10-19T11:17:18;9.00;;;8.10;;
12429;SDS011;6279;42.192;24.326;2023-10-19T11:19:44;10.20;;;8.20;;
12429;SDS011;6279;42.192;24.326;2023-10-19T11:22:09;9.33;;;8.33;;
12429;SDS011;6279;42.192;24.326;2023-10-19T11:24:35;11.93;;;9.17;;
12429;SDS011;6279;42.192;24.326;2023-10-19T11:27:05;10.37;;;9.10;;
12429;SDS011;6279;42.192;24.326;2023-10-19T11:29:32;9.23;;;8.40;;
12429;SDS011;6279;42.192;24.326;2023-10-19T11:31:59;13.43;;;9.23;;
12429;SDS011;6279;42.192;24.326;2023-10-19T11:34:25;11.00;;;8.40;;
12429;SDS011;6279;42.192;24.326;2023-10-19T11:36:53;9.77;;;8.50;;
12429;SDS011;6279;42.192;24.326;2023-10-19T11:39:22;9.37;;;8.10;;
12429;SDS011;6279;42.192;24.326;2023-10-19T11:41:49;9.03;;;7.97;;
12429;SDS011;6279;42.192;24.326;2023-10-19T11:44:14;11.10;;;7.70;;
12429;SDS011;6279;42.192;24.326;2023-10-19T11:46:40;10.70;;;8.23;;
12429;SDS011;6279;42.192;24.326;2023-10-19T11:49:05;9.23;;;8.00;;
12429;SDS011;6279;42.192;24.326;2023-10-19T11:51:31;11.03;;;8.13;;
12429;SDS011;6279;42.192;24.326;2023-10-19T11:53:56;11.63;;;8.37;;
12429;SDS011;6279;42.192;24.326;2023-10-19T11:56:22;8.23;;;7.27;;
12429;SDS011;6279;42.192;24.326;2023-10-19T11:58:50;9.37;;;8.37;;
12429;SDS011;6279;42.192;24.326;2023-10-19T12:01:15;11.07;;;8.60;;
12429;SDS011;6279;42.192;24.326;2023-10-19T12:03:43;10.73;;;8.60;;
12429;SDS011;6279;42.192;24.326;2023-10-19T12:06:10;10.97;;;9.63;;
12429;SDS011;6279;42.192;24.326;2023-10-19T12:08:37;14.83;;;9.23;;
12429;SDS011;6279;42.192;24.326;2023-10-19T12:11:03;10.77;;;8.50;;
12429;SDS011;6279;42.192;24.326;2023-10-19T12:13:35;11.57;;;9.37;;
12429;SDS011;6279;42.192;24.326;2023-10-19T12:16:00;11.17;;;9.10;;
12429;SDS011;6279;42.192;24.326;2023-10-19T12:18:29;12.10;;;9.47;;
12429;SDS011;6279;42.192;24.326;2023-10-19T12:20:55;9.83;;;8.80;;
12429;SDS011;6279;42.192;24.326;2023-10-19T12:23:25;11.77;;;9.30;;
12429;SDS011;6279;42.192;24.326;2023-10-19T12:25:50;13.33;;;10.33;;
12429;SDS011;6279;42.192;24.326;2023-10-19T12:28:16;13.13;;;9.60;;
12429;SDS011;6279;42.192;24.326;2023-10-19T12:30:41;12.33;;;10.90;;
12429;SDS011;6279;42.192;24.326;2023-10-19T12:33:07;14.10;;;10.90;;
12429;SDS011;6279;42.192;24.326;2023-10-19T12:35:42;11.53;;;10.13;;
12429;SDS011;6279;42.192;24.326;2023-10-19T12:38:14;11.40;;;9.30;;
12429;SDS011;6279;42.192;24.326;2023-10-19T12:40:46;11.23;;;10.03;;
12429;SDS011;6279;42.192;24.326;2023-10-19T12:43:13;12.80;;;9.63;;
12429;SDS011;6279;42.192;24.326;2023-10-19T12:45:40;14.20;;;9.77;;
12429;SDS011;6279;42.192;24.326;2023-10-19T12:48:06;14.07;;;10.23;;
12429;SDS011;6279;42.192;24.326;2023-10-19T12:50:33;10.87;;;9.23;;
12429;SDS011;6279;42.192;24.326;2023-10-19T12:52:59;10.97;;;9.87;;
12429;SDS011;6279;42.192;24.326;2023-10-19T12:55:25;10.63;;;9.53;;
12429;SDS011;6279;42.192;24.326;2023-10-19T12:57:55;10.90;;;8.53;;
12429;SDS011;6279;42.192;24.326;2023-10-19T13:00:31;11.13;;;8.70;;
12429;SDS011;6279;42.192;24.326;2023-10-19T13:03:04;10.50;;;8.97;;
12429;SDS011;6279;42.192;24.326;2023-10-19T13:05:36;9.20;;;8.20;;
12429;SDS011;6279;42.192;24.326;2023-10-19T13:08:05;9.77;;;8.10;;
12429;SDS011;6279;42.192;24.326;2023-10-19T13:10:34;12.37;;;8.50;;
12429;SDS011;6279;42.192;24.326;2023-10-19T13:13:02;12.33;;;9.10;;
12429;SDS011;6279;42.192;24.326;2023-10-19T13:15:29;12.37;;;9.50;;
12429;SDS011;6279;42.192;24.326;2023-10-19T13:17:59;13.07;;;10.37;;
12429;SDS011;6279;42.192;24.326;2023-10-19T13:20:26;13.03;;;9.97;;
12429;SDS011;6279;42.192;24.326;2023-10-19T13:22:53;11.87;;;9.60;;
12429;SDS011;6279;42.192;24.326;2023-10-19T13:25:20;10.63;;;9.53;;
12429;SDS011;6279;42.192;24.326;2023-10-19T13:28:03;11.83;;;10.10;;
12429;SDS011;6279;42.192;24.326;2023-10-19T13:30:36;16.90;;;9.90;;
12429;SDS011;6279;42.192;24.326;2023-10-19T13:33:07;19.80;;;9.83;;
12429;SDS011;6279;42.192;24.326;2023-10-19T13:35:36;19.37;;;10.37;;
12429;SDS011;6279;42.192;24.326;2023-10-19T13:38:04;11.50;;;10.00;;
12429;SDS011;6279;42.192;24.326;2023-10-19T13:40:30;11.27;;;10.07;;
12429;SDS011;6279;42.192;24.326;2023-10-19T13:42:56;11.73;;;10.53;;
12429;SDS011;6279;42.192;24.326;2023-10-19T13:45:22;12.60;;;11.30;;
12429;SDS011;6279;42.192;24.326;2023-10-19T13:47:48;13.53;;;10.67;;
12429;SDS011;6279;42.192;24.326;2023-10-19T13:50:14;12.13;;;10.33;;
12429;SDS011;6279;42.192;24.326;2023-10-19T13:52:39;12.40;;;10.13;;
12429;SDS011;6279;42.192;24.326;2023-10-19T13:55:05;12.03;;;9.93;;
12429;SDS011;6279;42.192;24.326;2023-10-19T13:57:32;11.67;;;10.47;;
12429;SDS011;6279;42.192;24.326;2023-10-19T13:59:58;14.70;;;11.53;;
12429;SDS011;6279;42.192;24.326;2023-10-19T14:02:23;12.07;;;9.97;;
12429;SDS011;6279;42.192;24.326;2023-10-19T14:04:49;14.00;;;10.70;;
12429;SDS011;6279;42.192;24.326;2023-10-19T14:07:16;12.90;;;10.27;;
12429;SDS011;6279;42.192;24.326;2023-10-19T14:09:42;12.20;;;10.73;;
12429;SDS011;6279;42.192;24.326;2023-10-19T14:12:07;12.77;;;10.80;;
12429;SDS011;6279;42.192;24.326;2023-10-19T14:14:34;13.90;;;10.63;;
12429;SDS011;6279;42.192;24.326;2023-10-19T14:17:00;11.93;;;10.73;;
12429;SDS011;6279;42.192;24.326;2023-10-19T14:19:25;14.90;;;10.40;;
12429;SDS011;6279;42.192;24.326;2023-10-19T14:21:51;10.97;;;9.87;;
12429;SDS011;6279;42.192;24.326;2023-10-19T14:24:17;13.47;;;9.10;;
12429;SDS011;6279;42.192;24.326;2023-10-19T14:26:45;11.90;;;9.57;;
12429;SDS011;6279;42.192;24.326;2023-10-19T14:29:12;9.03;;;8.00;;
12429;SDS011;6279;42.192;24.326;2023-10-19T14:31:38;12.10;;;8.77;;
12429;SDS011;6279;42.192;24.326;2023-10-19T14:34:05;12.60;;;8.50;;
12429;SDS011;6279;42.192;24.326;2023-10-19T14:36:33;9.97;;;7.97;;
12429;SDS011;6279;42.192;24.326;2023-10-19T14:38:58;12.90;;;8.90;;
12429;SDS011;6279;42.192;24.326;2023-10-19T14:41:24;8.87;;;7.70;;
12429;SDS011;6279;42.192;24.326;2023-10-19T14:43:49;9.10;;;8.10;;
12429;SDS011;6279;42.192;24.326;2023-10-19T14:46:14;10.77;;;8.67;;
12429;SDS011;6279;42.192;24.326;2023-10-19T14:48:41;11.23;;;9.87;;
12429;SDS011;6279;42.192;24.326;2023-10-19T14:51:06;10.73;;;8.40;;
12429;SDS011;6279;42.192;24.326;2023-10-19T14:53:32;11.87;;;9.20;;
12429;SDS011;6279;42.192;24.326;2023-10-19T14:55:58;12.07;;;9.00;;